createdAt,value
2023-05-21T00:01:25.944Z,11.98
2023-05-21T00:03:30.431Z,11.77
2023-05-21T00:05:32.806Z,12.80
2023-05-21T00:07:34.682Z,11.90
2023-05-21T00:09:38.375Z,11.48
2023-05-21T00:11:40.123Z,13.18
2023-05-21T00:13:42.088Z,13.85
2023-05-21T00:15:43.831Z,12.98
2023-05-21T00:17:46.289Z,12.65
2023-05-21T00:19:48.128Z,13.48
2023-05-21T00:21:49.939Z,13.13
2023-05-21T00:23:54.348Z,11.50
2023-05-21T00:25:56.486Z,11.27
2023-05-21T00:27:58.368Z,11.90
2023-05-21T00:30:00.132Z,13.88
2023-05-21T00:32:02.010Z,12.32
2023-05-21T00:34:03.835Z,12.25
2023-05-21T00:36:06.328Z,12.45
2023-05-21T00:38:08.723Z,11.85
2023-05-21T00:40:11.745Z,10.38
2023-05-21T00:42:18.354Z,12.73
2023-05-21T00:44:20.721Z,13.20
2023-05-21T00:46:22.936Z,12.10
2023-05-21T00:48:25.247Z,12.65
2023-05-21T00:50:28.069Z,13.82
2023-05-21T00:52:30.014Z,12.35
2023-05-21T00:54:32.123Z,13.73
2023-05-21T00:56:33.971Z,14.50
2023-05-21T00:58:36.251Z,12.85
2023-05-21T01:00:38.001Z,13.98
2023-05-21T01:02:39.885Z,12.60
2023-05-21T01:04:46.136Z,14.48
2023-05-21T01:06:47.862Z,14.18
2023-05-21T01:08:51.033Z,12.85
2023-05-21T01:10:53.437Z,11.43
2023-05-21T01:12:58.599Z,13.85
2023-05-21T01:15:04.271Z,14.35
2023-05-21T01:17:06.843Z,13.63
2023-05-21T01:19:11.243Z,13.68
2023-05-21T01:21:13.843Z,12.73
2023-05-21T01:23:20.293Z,12.60
2023-05-21T01:25:23.421Z,13.55
2023-05-21T01:27:25.240Z,13.07
2023-05-21T01:29:27.032Z,14.38
2023-05-21T01:31:52.720Z,13.40
2023-05-21T01:33:56.546Z,13.70
2023-05-21T01:36:16.094Z,13.65
2023-05-21T01:38:25.369Z,13.60
2023-05-21T01:41:14.759Z,14.38
2023-05-21T01:43:16.746Z,15.18
2023-05-21T01:45:22.987Z,15.80
2023-05-21T01:47:25.055Z,13.73
2023-05-21T01:49:27.487Z,13.63
2023-05-21T01:51:29.428Z,14.10
2023-05-21T01:53:31.273Z,12.73
2023-05-21T01:55:33.527Z,13.68
2023-05-21T01:57:35.315Z,13.35
2023-05-21T01:59:37.243Z,13.30
2023-05-21T02:01:38.993Z,13.50
2023-05-21T02:03:40.837Z,15.38
2023-05-21T02:05:43.043Z,14.85
2023-05-21T02:07:46.169Z,14.00
2023-05-21T02:09:48.005Z,14.52
2023-05-21T02:11:49.720Z,14.23
2023-05-21T02:13:51.629Z,13.43
2023-05-21T02:15:55.196Z,13.73
2023-05-21T02:17:58.533Z,13.50
2023-05-21T02:20:12.968Z,15.43
2023-05-21T02:22:14.762Z,14.07
2023-05-21T02:24:16.869Z,14.00
2023-05-21T02:26:22.604Z,14.02
2023-05-21T02:28:24.441Z,15.68
2023-05-21T02:30:26.169Z,14.82
2023-05-21T02:32:27.993Z,14.55
2023-05-21T02:34:33.146Z,15.20
2023-05-21T02:36:36.227Z,13.38
2023-05-21T02:38:38.408Z,15.75
2023-05-21T02:40:40.620Z,15.57
2023-05-21T02:42:42.464Z,19.45
2023-05-21T02:44:44.234Z,13.70
2023-05-21T02:46:46.036Z,14.80
2023-05-21T02:48:47.787Z,15.00
2023-05-21T02:50:49.548Z,14.20
2023-05-21T02:52:52.374Z,15.93
2023-05-21T02:54:54.397Z,16.10
2023-05-21T02:56:56.069Z,14.63
2023-05-21T02:58:57.848Z,14.00
2023-05-21T03:01:00.105Z,14.55
2023-05-21T03:03:02.045Z,14.57
2023-05-21T03:05:04.074Z,14.43
2023-05-21T03:07:06.391Z,15.43
2023-05-21T03:09:11.250Z,14.70
2023-05-21T03:11:13.020Z,14.80
2023-05-21T03:13:14.774Z,16.38
2023-05-21T03:15:16.758Z,14.35
2023-05-21T03:17:19.172Z,14.60
2023-05-21T03:19:21.623Z,14.93
2023-05-21T03:21:23.373Z,14.30
2023-05-21T03:23:25.604Z,14.82
2023-05-21T03:25:27.355Z,14.07
2023-05-21T03:27:29.081Z,15.52
2023-05-21T03:29:30.854Z,13.80
2023-05-21T03:31:32.715Z,14.73
2023-05-21T03:33:34.607Z,13.50
2023-05-21T03:35:36.643Z,14.82
2023-05-21T03:37:38.777Z,14.13
2023-05-21T03:39:40.660Z,15.05
2023-05-21T03:41:42.526Z,15.00
2023-05-21T03:43:44.214Z,13.57
2023-05-21T03:45:46.110Z,14.57
2023-05-21T03:47:49.055Z,14.93
2023-05-21T03:49:50.913Z,14.95
2023-05-21T03:51:52.717Z,13.68
2023-05-21T03:53:54.507Z,13.60
2023-05-21T03:55:56.375Z,15.02
2023-05-21T03:57:58.092Z,13.88
2023-05-21T03:59:59.905Z,15.05
2023-05-21T04:02:01.692Z,14.65
2023-05-21T04:04:03.664Z,13.05
2023-05-21T04:06:05.634Z,13.77
2023-05-21T04:08:07.449Z,15.35
2023-05-21T04:10:09.324Z,13.75
2023-05-21T04:12:11.097Z,14.23
2023-05-21T04:14:12.977Z,14.23
2023-05-21T04:16:19.250Z,13.90
2023-05-21T04:18:23.986Z,14.48
2023-05-21T04:20:25.804Z,13.07
2023-05-21T04:22:27.564Z,15.40
2023-05-21T04:24:29.442Z,12.05
2023-05-21T04:26:34.034Z,14.57
2023-05-21T04:28:36.501Z,16.23
2023-05-21T04:30:38.548Z,14.63
2023-05-21T04:32:40.321Z,13.88
2023-05-21T04:34:42.131Z,15.27
2023-05-21T04:36:47.502Z,14.25
2023-05-21T04:38:49.920Z,13.80
2023-05-21T04:40:52.080Z,13.60
2023-05-21T04:42:53.928Z,12.57
2023-05-21T04:44:55.738Z,13.52
2023-05-21T04:46:57.658Z,13.50
2023-05-21T04:49:03.165Z,13.02
2023-05-21T04:51:06.629Z,14.55
2023-05-21T04:53:08.512Z,14.77
2023-05-21T04:55:10.409Z,13.90
2023-05-21T04:57:12.182Z,15.18
2023-05-21T04:59:14.460Z,14.50
2023-05-21T05:01:16.455Z,12.35
2023-05-21T05:03:18.587Z,15.30
2023-05-21T05:05:20.490Z,13.93
2023-05-21T05:07:22.915Z,14.93
2023-05-21T05:09:25.396Z,13.07
2023-05-21T05:11:27.160Z,12.52
2023-05-21T05:13:28.961Z,13.75
2023-05-21T05:15:31.224Z,14.43
2023-05-21T05:17:35.783Z,14.05
2023-05-21T05:19:37.603Z,16.40
2023-05-21T05:21:39.299Z,14.27
2023-05-21T05:23:41.015Z,15.00
2023-05-21T05:25:42.719Z,13.05
2023-05-21T05:27:44.558Z,14.32
2023-05-21T05:29:46.843Z,12.55
2023-05-21T05:31:48.597Z,13.85
2023-05-21T05:33:50.331Z,13.55
2023-05-21T05:35:52.120Z,15.48
2023-05-21T05:37:53.960Z,13.43
2023-05-21T05:39:56.011Z,12.48
2023-05-21T05:41:57.851Z,13.75
2023-05-21T05:43:59.597Z,13.02
2023-05-21T05:46:01.422Z,15.15
2023-05-21T05:48:03.388Z,15.85
2023-05-21T05:50:05.995Z,12.95
2023-05-21T05:52:07.892Z,13.63
2023-05-21T05:54:09.635Z,12.38
2023-05-21T05:56:11.437Z,13.88
2023-05-21T05:58:13.182Z,13.57
2023-05-21T06:00:15.468Z,12.90
2023-05-21T06:02:17.266Z,12.15
2023-05-21T06:04:19.251Z,12.23
2023-05-21T06:06:21.114Z,13.52
2023-05-21T06:08:23.451Z,13.88
2023-05-21T06:10:25.241Z,14.15
2023-05-21T06:12:30.162Z,12.93
2023-05-21T06:14:32.000Z,19.92
2023-05-21T06:16:34.226Z,14.50
2023-05-21T06:18:36.281Z,12.88
2023-05-21T06:20:38.070Z,12.07
2023-05-21T06:22:39.861Z,12.48
2023-05-21T06:24:41.630Z,11.77
2023-05-21T06:26:43.428Z,11.88
2023-05-21T06:28:45.264Z,11.80
2023-05-21T06:30:46.999Z,13.10
2023-05-21T06:32:48.791Z,11.48
2023-05-21T06:34:50.786Z,13.73
2023-05-21T06:36:52.597Z,12.48
2023-05-21T06:38:54.320Z,11.55
2023-05-21T06:40:56.119Z,12.13
2023-05-21T06:42:59.952Z,11.13
2023-05-21T06:45:02.090Z,11.48
2023-05-21T06:47:03.930Z,11.95
2023-05-21T06:49:07.173Z,11.88
2023-05-21T06:51:08.968Z,11.07
2023-05-21T06:53:10.768Z,12.82
2023-05-21T06:55:13.029Z,12.23
2023-05-21T06:57:16.185Z,11.40
2023-05-21T06:59:17.966Z,12.88
2023-05-21T07:01:19.902Z,11.45
2023-05-21T07:03:21.761Z,12.32
2023-05-21T07:05:23.621Z,11.60
2023-05-21T07:07:25.363Z,11.73
2023-05-21T07:09:27.237Z,11.63
2023-05-21T07:11:29.068Z,12.48
2023-05-21T07:13:31.045Z,13.40
2023-05-21T07:15:32.836Z,12.95
2023-05-21T07:17:34.577Z,11.68
2023-05-21T07:19:38.282Z,11.70
2023-05-21T07:21:40.020Z,11.85
2023-05-21T07:23:41.864Z,11.55
2023-05-21T07:25:43.581Z,14.95
2023-05-21T07:27:45.338Z,11.70
2023-05-21T07:29:47.059Z,12.13
2023-05-21T07:31:48.868Z,12.15
2023-05-21T07:33:51.370Z,12.00
2023-05-21T07:36:00.706Z,11.30
2023-05-21T07:38:02.610Z,11.10
2023-05-21T07:40:06.398Z,12.68
2023-05-21T07:42:08.123Z,11.32
2023-05-21T07:44:09.874Z,11.95
2023-05-21T07:46:11.956Z,11.90
2023-05-21T07:48:14.390Z,11.70
2023-05-21T07:50:16.270Z,12.43
2023-05-21T07:52:18.092Z,11.48
2023-05-21T07:54:19.866Z,12.52
2023-05-21T07:56:21.753Z,10.93
2023-05-21T07:58:23.776Z,11.13
2023-05-21T08:00:25.923Z,11.32
2023-05-21T08:02:27.736Z,11.50
2023-05-21T08:04:29.771Z,12.02
2023-05-21T08:06:31.822Z,12.15
2023-05-21T08:08:33.595Z,10.10
2023-05-21T08:10:35.963Z,11.43
2023-05-21T08:12:37.722Z,11.35
2023-05-21T08:14:39.437Z,10.93
2023-05-21T08:16:41.174Z,12.90
2023-05-21T08:18:42.979Z,10.77
2023-05-21T08:20:44.721Z,11.75
2023-05-21T08:22:46.810Z,11.25
2023-05-21T08:24:49.822Z,11.02
2023-05-21T08:26:51.603Z,11.25
2023-05-21T08:28:53.357Z,12.07
2023-05-21T08:30:55.602Z,11.82
2023-05-21T08:32:57.541Z,12.63
2023-05-21T08:35:00.838Z,13.02
2023-05-21T08:37:02.937Z,11.23
2023-05-21T08:39:05.886Z,11.23
2023-05-21T08:41:08.306Z,14.65
2023-05-21T08:43:13.999Z,11.90
2023-05-21T08:45:21.799Z,10.32
2023-05-21T08:47:27.180Z,11.98
2023-05-21T08:49:31.291Z,11.48
2023-05-21T08:51:33.253Z,11.90
2023-05-21T08:53:35.142Z,11.80
2023-05-21T08:55:37.577Z,12.05
2023-05-21T08:57:43.552Z,10.63
2023-05-21T08:59:45.696Z,11.88
2023-05-21T09:01:50.174Z,12.00
2023-05-21T09:03:54.432Z,11.38
2023-05-21T09:05:59.379Z,11.32
2023-05-21T09:08:09.487Z,11.80
2023-05-21T09:10:13.415Z,10.75
2023-05-21T09:12:15.362Z,11.38
2023-05-21T09:14:17.636Z,11.20
2023-05-21T09:16:19.401Z,11.50
2023-05-21T09:18:21.291Z,12.40
2023-05-21T09:20:27.360Z,11.80
2023-05-21T09:22:29.047Z,11.18
2023-05-21T09:24:35.101Z,11.75
2023-05-21T09:26:37.985Z,10.85
2023-05-21T09:28:39.776Z,11.80
2023-05-21T09:30:49.621Z,10.68
2023-05-21T09:32:57.523Z,11.63
2023-05-21T09:35:10.070Z,10.27
2023-05-21T09:37:23.602Z,10.45
2023-05-21T09:39:32.151Z,10.48
2023-05-21T09:41:36.261Z,10.65
2023-05-21T09:43:38.135Z,9.60
2023-05-21T09:45:50.711Z,10.15
2023-05-21T09:47:54.125Z,11.13
2023-05-21T09:49:58.753Z,11.18
2023-05-21T09:52:00.886Z,14.98
2023-05-21T09:54:03.380Z,10.43
2023-05-21T09:56:05.481Z,9.10
2023-05-21T09:58:07.368Z,10.35
2023-05-21T10:00:12.825Z,11.13
2023-05-21T10:02:17.383Z,9.15
2023-05-21T10:04:19.365Z,9.88
2023-05-21T10:06:21.964Z,9.55
2023-05-21T10:08:27.048Z,11.25
2023-05-21T10:10:29.918Z,10.07
2023-05-21T10:12:33.674Z,9.90
2023-05-21T10:14:36.096Z,9.75
2023-05-21T10:16:37.994Z,10.38
2023-05-21T10:18:40.530Z,9.82
2023-05-21T10:20:42.991Z,10.20
2023-05-21T10:22:45.211Z,9.38
2023-05-21T10:24:47.304Z,10.00
2023-05-21T10:26:49.245Z,9.75
2023-05-21T10:28:51.532Z,10.02
2023-05-21T10:30:54.685Z,8.45
2023-05-21T10:32:57.327Z,10.05
2023-05-21T10:35:01.630Z,9.52
2023-05-21T10:37:04.896Z,11.73
2023-05-21T10:39:08.110Z,9.82
2023-05-21T10:41:10.136Z,10.25
2023-05-21T10:43:11.858Z,10.10
2023-05-21T10:45:28.846Z,10.52
2023-05-21T10:48:12.517Z,10.30
2023-05-21T10:50:46.884Z,9.43
2023-05-21T10:52:53.733Z,9.07
2023-05-21T10:55:00.990Z,10.77
2023-05-21T10:57:40.179Z,10.77
2023-05-21T10:59:48.875Z,10.10
2023-05-21T11:01:53.219Z,9.20
2023-05-21T11:03:55.424Z,11.40
2023-05-21T11:05:58.080Z,9.93
2023-05-21T11:08:01.734Z,10.15
2023-05-21T11:10:38.831Z,10.23
2023-05-21T11:13:16.447Z,10.80
2023-05-21T11:15:18.234Z,10.45
2023-05-21T11:17:48.224Z,12.07
2023-05-21T11:19:52.916Z,10.18
2023-05-21T11:21:55.582Z,10.23
2023-05-21T11:24:02.012Z,10.02
2023-05-21T11:26:03.801Z,9.75
2023-05-21T11:28:06.676Z,9.75
2023-05-21T11:30:10.149Z,11.10
2023-05-21T11:32:15.799Z,9.73
2023-05-21T11:34:28.459Z,9.63
2023-05-21T11:36:30.492Z,9.40
2023-05-21T11:38:33.112Z,9.18
2023-05-21T11:40:35.867Z,8.93
2023-05-21T11:42:42.596Z,9.80
2023-05-21T11:44:46.051Z,10.32
2023-05-21T11:46:49.062Z,9.88
2023-05-21T11:48:51.235Z,9.50
2023-05-21T11:50:53.252Z,9.20
2023-05-21T11:52:55.137Z,9.77
2023-05-21T11:54:57.902Z,9.85
2023-05-21T11:57:01.220Z,9.63
2023-05-21T11:59:03.324Z,9.43
2023-05-21T12:01:05.336Z,8.93
2023-05-21T12:03:13.216Z,8.23
2023-05-21T12:05:15.120Z,10.20
2023-05-21T12:07:19.485Z,8.85
2023-05-21T12:09:21.729Z,8.02
2023-05-21T12:11:23.644Z,8.68
2023-05-21T12:13:26.343Z,7.43
2023-05-21T12:15:28.269Z,8.43
2023-05-21T12:17:31.987Z,9.70
2023-05-21T12:19:34.831Z,9.15
2023-05-21T12:21:36.884Z,8.45
2023-05-21T12:23:38.772Z,8.20
2023-05-21T12:25:40.721Z,8.05
2023-05-21T12:27:45.298Z,7.20
2023-05-21T12:29:50.106Z,8.10
2023-05-21T12:31:51.921Z,9.10
2023-05-21T12:33:53.930Z,9.07
2023-05-21T12:35:56.692Z,9.27
2023-05-21T12:38:01.209Z,9.70
2023-05-21T12:40:10.081Z,11.73
2023-05-21T12:42:12.319Z,8.70
2023-05-21T12:44:20.222Z,8.38
2023-05-21T12:46:23.715Z,8.32
2023-05-21T12:48:25.625Z,8.25
2023-05-21T12:50:27.444Z,12.70
2023-05-21T12:52:29.423Z,9.30
2023-05-21T12:54:34.608Z,8.88
2023-05-21T12:56:45.609Z,10.18
2023-05-21T12:58:50.748Z,9.40
2023-05-21T13:00:56.617Z,10.07
2023-05-21T13:03:00.373Z,9.57
2023-05-21T13:05:04.480Z,8.95
2023-05-21T13:07:06.459Z,11.50
2023-05-21T13:09:08.276Z,9.65
2023-05-21T13:11:10.187Z,8.15
2023-05-21T13:13:12.532Z,9.13
2023-05-21T13:15:14.514Z,9.43
2023-05-21T13:17:16.866Z,8.82
2023-05-21T13:19:18.758Z,9.18
2023-05-21T13:21:21.094Z,11.13
2023-05-21T13:23:23.166Z,8.48
2023-05-21T13:25:29.211Z,8.15
2023-05-21T13:27:31.586Z,8.07
2023-05-21T13:29:33.432Z,9.13
2023-05-21T13:31:35.262Z,8.32
2023-05-21T13:33:37.488Z,9.20
2023-05-21T13:35:39.438Z,8.80
2023-05-21T13:37:41.947Z,9.77
2023-05-21T13:39:43.836Z,9.18
2023-05-21T13:41:45.720Z,8.57
2023-05-21T13:43:47.618Z,9.20
2023-05-21T13:45:49.965Z,8.60
2023-05-21T13:47:51.871Z,8.43
2023-05-21T13:49:53.685Z,8.95
2023-05-21T13:51:55.470Z,7.68
2023-05-21T13:53:57.290Z,8.40
2023-05-21T13:55:59.009Z,7.90
2023-05-21T13:58:00.802Z,8.52
2023-05-21T14:00:03.344Z,8.20
2023-05-21T14:02:05.276Z,7.68
2023-05-21T14:04:07.335Z,6.85
2023-05-21T14:06:09.157Z,7.43
2023-05-21T14:08:11.589Z,7.43
2023-05-21T14:10:13.343Z,7.68
2023-05-21T14:12:15.188Z,6.97
2023-05-21T14:14:19.157Z,7.65
2023-05-21T14:16:23.231Z,8.05
2023-05-21T14:18:25.072Z,7.80
2023-05-21T14:20:26.768Z,7.72
2023-05-21T14:22:28.591Z,7.47
2023-05-21T14:24:30.430Z,8.23
2023-05-21T14:26:32.368Z,8.35
2023-05-21T14:28:34.142Z,8.27
2023-05-21T14:30:36.195Z,8.02
2023-05-21T14:32:38.001Z,7.68
2023-05-21T14:34:40.530Z,7.50
2023-05-21T14:36:42.341Z,8.05
2023-05-21T14:38:44.173Z,8.52
2023-05-21T14:40:46.005Z,7.10
2023-05-21T14:42:47.720Z,7.88
2023-05-21T14:44:49.522Z,8.43
2023-05-21T14:46:51.544Z,7.80
2023-05-21T14:48:53.511Z,7.65
2023-05-21T14:50:55.298Z,7.10
2023-05-21T14:52:57.050Z,7.47
2023-05-21T14:54:58.818Z,7.63
2023-05-21T14:57:00.544Z,7.30
2023-05-21T14:59:02.307Z,8.38
2023-05-21T15:01:07.258Z,7.95
2023-05-21T15:03:09.162Z,8.60
2023-05-21T15:05:11.049Z,7.85
2023-05-21T15:07:12.912Z,7.85
2023-05-21T15:09:14.864Z,8.02
2023-05-21T15:11:16.645Z,6.60
2023-05-21T15:13:18.485Z,7.80
2023-05-21T15:15:23.507Z,8.00
2023-05-21T15:17:25.352Z,8.93
2023-05-21T15:19:27.194Z,7.70
2023-05-21T15:21:28.998Z,9.00
2023-05-21T15:23:30.840Z,11.23
2023-05-21T15:25:32.625Z,9.38
2023-05-21T15:27:34.478Z,8.30
2023-05-21T15:29:36.273Z,9.77
2023-05-21T15:31:39.642Z,8.38
2023-05-21T15:33:41.421Z,7.30
2023-05-21T15:35:43.501Z,7.80
2023-05-21T15:37:46.265Z,7.18
2023-05-21T15:39:51.478Z,8.02
2023-05-21T15:41:56.293Z,7.15
2023-05-21T15:43:58.057Z,10.85
2023-05-21T15:45:59.816Z,7.38
2023-05-21T15:48:01.657Z,8.02
2023-05-21T15:50:03.665Z,9.60
2023-05-21T15:52:05.898Z,7.97
2023-05-21T15:54:07.795Z,7.45
2023-05-21T15:56:10.055Z,7.78
2023-05-21T15:58:12.007Z,7.93
2023-05-21T16:00:14.158Z,6.97
2023-05-21T16:02:15.843Z,8.98
2023-05-21T16:04:20.925Z,7.57
2023-05-21T16:06:22.722Z,8.52
2023-05-21T16:08:24.459Z,7.63
2023-05-21T16:10:26.244Z,8.07
2023-05-21T16:12:28.001Z,8.45
2023-05-21T16:14:29.778Z,7.43
2023-05-21T16:16:31.525Z,6.95
2023-05-21T16:18:33.368Z,7.47
2023-05-21T16:20:35.530Z,7.95
2023-05-21T16:22:37.216Z,7.22
2023-05-21T16:24:42.007Z,8.45
2023-05-21T16:26:44.126Z,7.15
2023-05-21T16:28:46.150Z,7.00
2023-05-21T16:30:48.099Z,6.93
2023-05-21T16:32:50.067Z,7.80
2023-05-21T16:34:51.807Z,7.85
2023-05-21T16:36:53.564Z,7.65
2023-05-21T16:38:55.395Z,6.85
2023-05-21T16:40:57.163Z,6.78
2023-05-21T16:43:01.298Z,7.15
2023-05-21T16:45:04.468Z,7.50
2023-05-21T16:47:06.635Z,7.75
2023-05-21T16:49:08.430Z,7.75
2023-05-21T16:51:10.280Z,7.07
2023-05-21T16:53:12.470Z,7.75
2023-05-21T16:55:14.334Z,8.00
2023-05-21T16:57:18.705Z,7.38
2023-05-21T16:59:20.439Z,8.57
2023-05-21T17:01:22.242Z,8.10
2023-05-21T17:03:24.243Z,8.43
2023-05-21T17:05:26.519Z,7.35
2023-05-21T17:07:28.266Z,7.70
2023-05-21T17:09:30.028Z,7.50
2023-05-21T17:11:31.823Z,8.43
2023-05-21T17:13:33.655Z,13.32
2023-05-21T17:15:36.294Z,9.50
2023-05-21T17:17:38.310Z,7.63
2023-05-21T17:19:40.102Z,7.07
2023-05-21T17:21:41.911Z,6.88
2023-05-21T17:23:43.795Z,8.27
2023-05-21T17:25:45.613Z,7.18
2023-05-21T17:27:47.475Z,11.40
2023-05-21T17:29:49.217Z,8.30
2023-05-21T17:31:51.256Z,8.05
2023-05-21T17:33:53.245Z,6.43
2023-05-21T17:35:57.156Z,6.07
2023-05-21T17:37:58.962Z,6.22
2023-05-21T17:40:00.735Z,7.80
2023-05-21T17:42:02.882Z,6.43
2023-05-21T17:44:04.799Z,7.40
2023-05-21T17:46:09.512Z,7.15
2023-05-21T17:48:12.085Z,7.25
2023-05-21T17:50:13.960Z,6.85
2023-05-21T17:52:15.687Z,7.40
2023-05-21T17:54:17.483Z,6.43
2023-05-21T17:56:22.476Z,7.72
2023-05-21T17:58:24.292Z,6.65
2023-05-21T18:00:26.089Z,5.78
2023-05-21T18:02:28.044Z,6.45
2023-05-21T18:04:29.886Z,6.82
2023-05-21T18:06:32.899Z,6.28
2023-05-21T18:08:34.801Z,8.30
2023-05-21T18:10:36.669Z,6.18
2023-05-21T18:12:39.492Z,7.72
2023-05-21T18:14:41.340Z,6.22
2023-05-21T18:16:43.093Z,6.65
2023-05-21T18:18:45.007Z,7.10
2023-05-21T18:20:46.767Z,8.40
2023-05-21T18:22:48.505Z,7.55
2023-05-21T18:24:50.335Z,7.22
2023-05-21T18:26:52.069Z,9.43
2023-05-21T18:28:53.887Z,7.10
2023-05-21T18:30:57.082Z,6.53
2023-05-21T18:32:58.973Z,7.43
2023-05-21T18:35:00.823Z,8.00
2023-05-21T18:37:02.600Z,8.90
2023-05-21T18:39:07.936Z,7.50
2023-05-21T18:41:10.011Z,7.45
2023-05-21T18:43:11.795Z,6.57
2023-05-21T18:45:14.006Z,8.07
2023-05-21T18:47:15.863Z,7.05
2023-05-21T18:49:17.840Z,6.80
2023-05-21T18:51:19.618Z,7.28
2023-05-21T18:53:21.438Z,12.02
2023-05-21T18:55:23.521Z,6.85
2023-05-21T18:57:25.238Z,6.88
2023-05-21T18:59:29.526Z,7.30
2023-05-21T19:01:31.333Z,8.73
2023-05-21T19:03:33.141Z,7.40
2023-05-21T19:05:34.993Z,7.80
2023-05-21T19:07:36.925Z,13.18
2023-05-21T19:09:38.704Z,8.60
2023-05-21T19:11:40.403Z,7.60
2023-05-21T19:13:42.331Z,7.95
2023-05-21T19:15:47.032Z,7.70
2023-05-21T19:17:49.040Z,8.07
2023-05-21T19:19:55.815Z,9.23
2023-05-21T19:21:58.049Z,7.35
2023-05-21T19:23:59.787Z,7.38
2023-05-21T19:26:01.571Z,7.45
2023-05-21T19:28:04.012Z,8.32
2023-05-21T19:30:09.121Z,8.13
2023-05-21T19:32:11.964Z,7.30
2023-05-21T19:34:13.756Z,8.00
2023-05-21T19:36:15.590Z,8.57
2023-05-21T19:38:17.442Z,9.15
2023-05-21T19:40:22.594Z,8.02
2023-05-21T19:42:24.418Z,8.82
2023-05-21T19:44:26.294Z,8.55
2023-05-21T19:46:28.105Z,9.27
2023-05-21T19:48:29.866Z,9.57
2023-05-21T19:50:31.735Z,10.77
2023-05-21T19:52:33.491Z,8.55
2023-05-21T19:54:35.258Z,9.15
2023-05-21T19:56:37.226Z,9.98
2023-05-21T19:58:39.045Z,8.43
2023-05-21T20:00:41.113Z,8.73
2023-05-21T20:02:43.167Z,9.52
2023-05-21T20:04:45.072Z,8.27
2023-05-21T20:06:46.839Z,9.20
2023-05-21T20:08:48.611Z,8.23
2023-05-21T20:10:51.975Z,8.73
2023-05-21T20:12:53.916Z,9.48
2023-05-21T20:14:57.008Z,8.27
2023-05-21T20:16:58.848Z,8.38
2023-05-21T20:19:01.853Z,10.23
2023-05-21T20:21:06.505Z,9.38
2023-05-21T20:23:08.388Z,8.88
2023-05-21T20:25:10.772Z,8.38
2023-05-21T20:27:12.518Z,8.95
2023-05-21T20:29:14.520Z,9.95
2023-05-21T20:31:16.364Z,9.80
2023-05-21T20:33:18.651Z,11.25
2023-05-21T20:35:20.367Z,10.48
2023-05-21T20:37:27.999Z,9.50
2023-05-21T20:39:29.906Z,10.70
2023-05-21T20:41:36.211Z,10.48
2023-05-21T20:43:38.274Z,11.43
2023-05-21T20:45:41.876Z,10.20
2023-05-21T20:47:43.877Z,10.18
2023-05-21T20:49:46.067Z,10.43
2023-05-21T20:51:47.830Z,11.02
2023-05-21T20:53:49.592Z,10.75
2023-05-21T20:55:52.806Z,11.05
2023-05-21T20:57:54.524Z,10.50
2023-05-21T20:59:56.405Z,10.68
2023-05-21T21:01:58.693Z,10.38
2023-05-21T21:04:00.731Z,11.27
2023-05-21T21:06:04.392Z,9.40
2023-05-21T21:08:08.226Z,11.15
2023-05-21T21:10:10.241Z,10.23
2023-05-21T21:12:24.771Z,10.65
2023-05-21T21:14:28.346Z,10.23
2023-05-21T21:16:30.712Z,10.30
2023-05-21T21:18:32.547Z,9.35
2023-05-21T21:20:34.315Z,10.32
2023-05-21T21:22:36.074Z,10.18
2023-05-21T21:24:37.950Z,10.93
2023-05-21T21:26:39.673Z,9.85
2023-05-21T21:28:41.459Z,10.18
2023-05-21T21:30:43.309Z,10.30
2023-05-21T21:32:45.641Z,11.45
2023-05-21T21:34:47.412Z,9.82
2023-05-21T21:36:50.191Z,10.00
2023-05-21T21:38:51.940Z,10.10
2023-05-21T21:40:54.596Z,10.60
2023-05-21T21:42:56.495Z,11.07
2023-05-21T21:44:58.221Z,11.23
2023-05-21T21:46:59.953Z,10.10
2023-05-21T21:49:01.674Z,10.82
2023-05-21T21:51:03.603Z,10.13
2023-05-21T21:53:06.081Z,10.57
2023-05-21T21:55:10.964Z,10.95
2023-05-21T21:57:12.917Z,10.85
2023-05-21T21:59:15.116Z,11.05
2023-05-21T22:01:16.983Z,10.27
2023-05-21T22:03:19.141Z,10.32
2023-05-21T22:05:21.256Z,11.23
2023-05-21T22:07:23.866Z,9.90
2023-05-21T22:09:25.640Z,11.18
2023-05-21T22:11:28.566Z,10.68
2023-05-21T22:13:30.335Z,12.55
2023-05-21T22:15:32.494Z,11.05
2023-05-21T22:17:34.783Z,11.23
2023-05-21T22:19:36.550Z,10.52
2023-05-21T22:21:38.491Z,10.95
2023-05-21T22:23:40.316Z,10.45
2023-05-21T22:25:42.145Z,10.40
2023-05-21T22:27:44.059Z,11.13
2023-05-21T22:29:45.867Z,11.40
2023-05-21T22:31:47.617Z,11.27
2023-05-21T22:33:49.376Z,10.98
2023-05-21T22:35:51.121Z,10.98
2023-05-21T22:37:53.585Z,10.90
2023-05-21T22:39:55.428Z,10.75
2023-05-21T22:41:57.195Z,10.65
2023-05-21T22:43:59.060Z,11.30
2023-05-21T22:46:02.020Z,10.82
2023-05-21T22:48:07.432Z,10.50
2023-05-21T22:50:13.046Z,10.68
2023-05-21T22:52:16.982Z,11.15
2023-05-21T22:54:18.745Z,10.73
2023-05-21T22:56:21.115Z,10.75
2023-05-21T22:58:22.844Z,11.43
2023-05-21T23:00:24.631Z,10.77
2023-05-21T23:02:26.490Z,11.52
2023-05-21T23:04:43.258Z,10.68
2023-05-21T23:06:46.012Z,9.90
2023-05-21T23:08:47.757Z,11.57
2023-05-21T23:10:49.765Z,11.85
2023-05-21T23:12:51.590Z,11.55
2023-05-21T23:14:53.344Z,12.98
2023-05-21T23:16:55.740Z,11.30
2023-05-21T23:18:57.664Z,11.90
2023-05-21T23:20:59.463Z,12.00
2023-05-21T23:23:01.274Z,11.43
2023-05-21T23:25:03.306Z,10.90
2023-05-21T23:27:05.229Z,10.90
2023-05-21T23:29:06.970Z,11.50
2023-05-21T23:31:08.782Z,10.95
2023-05-21T23:33:10.757Z,11.73
2023-05-21T23:35:14.523Z,12.25
2023-05-21T23:37:16.268Z,10.95
2023-05-21T23:39:18.582Z,11.52
2023-05-21T23:41:21.061Z,11.50
2023-05-21T23:43:22.820Z,11.15
2023-05-21T23:45:24.595Z,11.45
2023-05-21T23:47:26.568Z,11.77
2023-05-21T23:49:28.257Z,10.45
2023-05-21T23:51:30.087Z,11.02
2023-05-21T23:53:31.889Z,10.00
2023-05-21T23:55:33.640Z,12.15
2023-05-21T23:57:35.410Z,11.70
2023-05-21T23:59:37.374Z,11.27
